createdAt,value
2023-04-16T00:00:22.263Z,1017.659
2023-04-16T00:00:52.259Z,1017.656
2023-04-16T00:01:22.264Z,1017.658
2023-04-16T00:01:52.360Z,1017.663
2023-04-16T00:02:22.401Z,1017.669
2023-04-16T00:02:52.489Z,1017.672
2023-04-16T00:03:22.388Z,1017.676
2023-04-16T00:03:52.592Z,1017.673
2023-04-16T00:04:22.370Z,1017.687
2023-04-16T00:04:52.330Z,1017.688
2023-04-16T00:05:22.251Z,1017.707
2023-04-16T00:05:52.260Z,1017.719
2023-04-16T00:06:22.251Z,1017.72
2023-04-16T00:06:52.256Z,1017.734
2023-04-16T00:07:22.266Z,1017.739
2023-04-16T00:07:52.256Z,1017.748
2023-04-16T00:08:22.258Z,1017.758
2023-04-16T00:08:52.277Z,1017.761
2023-04-16T00:09:22.264Z,1017.764
2023-04-16T00:09:52.261Z,1017.767
2023-04-16T00:10:22.267Z,1017.768
2023-04-16T00:10:52.264Z,1017.773
2023-04-16T00:11:22.269Z,1017.786
2023-04-16T00:11:52.254Z,1017.793
2023-04-16T00:12:22.266Z,1017.8
2023-04-16T00:12:52.257Z,1017.798
2023-04-16T00:13:22.262Z,1017.8
2023-04-16T00:13:52.255Z,1017.809
2023-04-16T00:14:22.263Z,1017.818
2023-04-16T00:14:52.263Z,1017.812
2023-04-16T00:15:22.263Z,1017.812
2023-04-16T00:15:52.264Z,1017.818
2023-04-16T00:16:22.348Z,1017.831
2023-04-16T00:16:52.314Z,1017.83
2023-04-16T00:17:22.290Z,1017.828
2023-04-16T00:17:52.272Z,1017.829
2023-04-16T00:18:22.262Z,1017.832
2023-04-16T00:18:52.266Z,1017.836
2023-04-16T00:19:22.264Z,1017.844
2023-04-16T00:19:52.256Z,1017.853
2023-04-16T00:20:22.260Z,1017.854
2023-04-16T00:20:52.256Z,1017.859
2023-04-16T00:21:22.261Z,1017.861
2023-04-16T00:21:52.255Z,1017.869
2023-04-16T00:22:22.261Z,1017.875
2023-04-16T00:22:52.255Z,1017.871
2023-04-16T00:23:22.262Z,1017.878
2023-04-16T00:23:52.258Z,1017.876
2023-04-16T00:24:22.265Z,1017.868
2023-04-16T00:24:52.261Z,1017.863
2023-04-16T00:25:22.264Z,1017.862
2023-04-16T00:25:52.262Z,1017.861
2023-04-16T00:26:22.259Z,1017.866
2023-04-16T00:26:52.256Z,1017.869
2023-04-16T00:27:22.260Z,1017.87
2023-04-16T00:27:52.257Z,1017.87
2023-04-16T00:28:22.262Z,1017.864
2023-04-16T00:28:52.257Z,1017.858
2023-04-16T00:29:22.274Z,1017.863
2023-04-16T00:29:52.263Z,1017.857
2023-04-16T00:30:22.263Z,1017.854
2023-04-16T00:30:52.296Z,1017.86
2023-04-16T00:31:22.389Z,1017.864
2023-04-16T00:31:52.258Z,1017.862
2023-04-16T00:32:22.336Z,1017.858
2023-04-16T00:32:52.290Z,1017.864
2023-04-16T00:33:22.258Z,1017.855
2023-04-16T00:33:52.258Z,1017.857
2023-04-16T00:34:22.265Z,1017.861
2023-04-16T00:34:52.266Z,1017.863
2023-04-16T00:35:22.264Z,1017.865
2023-04-16T00:35:52.256Z,1017.871
2023-04-16T00:36:22.259Z,1017.872
2023-04-16T00:36:52.263Z,1017.865
2023-04-16T00:37:22.262Z,1017.865
2023-04-16T00:37:52.259Z,1017.855
2023-04-16T00:38:22.261Z,1017.857
2023-04-16T00:38:52.260Z,1017.849
2023-04-16T00:39:22.260Z,1017.846
2023-04-16T00:39:52.266Z,1017.836
2023-04-16T00:40:22.265Z,1017.848
2023-04-16T00:40:52.258Z,1017.854
2023-04-16T00:41:22.259Z,1017.86
2023-04-16T00:41:52.256Z,1017.862
2023-04-16T00:42:22.264Z,1017.875
2023-04-16T00:42:52.262Z,1017.878
2023-04-16T00:43:22.254Z,1017.881
2023-04-16T00:43:52.260Z,1017.886
2023-04-16T00:44:22.257Z,1017.879
2023-04-16T00:44:52.263Z,1017.877
2023-04-16T00:45:22.257Z,1017.872
2023-04-16T00:45:52.273Z,1017.868
2023-04-16T00:46:22.291Z,1017.868
2023-04-16T00:46:52.261Z,1017.865
2023-04-16T00:47:22.283Z,1017.861
2023-04-16T00:47:52.283Z,1017.86
2023-04-16T00:48:22.269Z,1017.864
2023-04-16T00:48:52.266Z,1017.867
2023-04-16T00:49:22.257Z,1017.864
2023-04-16T00:49:52.260Z,1017.867
2023-04-16T00:50:22.254Z,1017.859
2023-04-16T00:50:52.260Z,1017.865
2023-04-16T00:51:22.257Z,1017.878
2023-04-16T00:51:52.264Z,1017.888
2023-04-16T00:52:22.255Z,1017.881
2023-04-16T00:52:52.260Z,1017.87
2023-04-16T00:53:22.254Z,1017.875
2023-04-16T00:53:52.269Z,1017.876
2023-04-16T00:54:22.262Z,1017.871
2023-04-16T00:54:52.273Z,1017.874
2023-04-16T00:55:22.282Z,1017.866
2023-04-16T00:55:52.274Z,1017.864
2023-04-16T00:56:22.318Z,1017.855
2023-04-16T00:56:52.255Z,1017.863
2023-04-16T00:57:22.258Z,1017.854
2023-04-16T00:57:52.263Z,1017.851
2023-04-16T00:58:22.271Z,1017.852
2023-04-16T00:58:52.261Z,1017.848
2023-04-16T00:59:22.264Z,1017.847
2023-04-16T00:59:52.257Z,1017.857
2023-04-16T01:00:22.260Z,1017.865
2023-04-16T01:00:52.265Z,1017.865
2023-04-16T01:01:22.287Z,1017.872
2023-04-16T01:01:52.375Z,1017.873
2023-04-16T01:02:22.355Z,1017.881
2023-04-16T01:02:52.341Z,1017.887
2023-04-16T01:03:22.407Z,1017.888
2023-04-16T01:03:52.305Z,1017.892
2023-04-16T01:04:22.374Z,1017.894
2023-04-16T01:04:52.262Z,1017.894
2023-04-16T01:05:22.262Z,1017.882
2023-04-16T01:05:52.266Z,1017.883
2023-04-16T01:06:22.261Z,1017.889
2023-04-16T01:06:52.258Z,1017.899
2023-04-16T01:07:22.280Z,1017.9
2023-04-16T01:07:52.278Z,1017.908
2023-04-16T01:08:22.256Z,1017.917
2023-04-16T01:08:52.262Z,1017.917
2023-04-16T01:09:22.262Z,1017.924
2023-04-16T01:09:52.263Z,1017.928
2023-04-16T01:10:22.262Z,1017.933
2023-04-16T01:10:52.259Z,1017.932
2023-04-16T01:11:22.268Z,1017.933
2023-04-16T01:11:52.265Z,1017.94
2023-04-16T01:12:22.260Z,1017.94
2023-04-16T01:12:52.270Z,1017.944
2023-04-16T01:13:22.264Z,1017.949
2023-04-16T01:13:52.269Z,1017.945
2023-04-16T01:14:22.260Z,1017.943
2023-04-16T01:14:52.272Z,1017.945
2023-04-16T01:15:22.268Z,1017.953
2023-04-16T01:15:52.272Z,1017.958
2023-04-16T01:16:22.459Z,1017.969
2023-04-16T01:16:52.269Z,1017.982
2023-04-16T01:17:22.277Z,1017.984
2023-04-16T01:17:52.293Z,1017.99
2023-04-16T01:18:22.277Z,1017.984
2023-04-16T01:18:52.264Z,1017.983
2023-04-16T01:19:22.265Z,1017.994
2023-04-16T01:19:52.267Z,1017.996
2023-04-16T01:20:22.275Z,1018.005
2023-04-16T01:20:52.274Z,1018.025
2023-04-16T01:21:22.272Z,1018.036
2023-04-16T01:21:52.268Z,1018.047
2023-04-16T01:22:22.270Z,1018.05
2023-04-16T01:22:52.266Z,1018.062
2023-04-16T01:23:22.271Z,1018.067
2023-04-16T01:23:52.262Z,1018.07
2023-04-16T01:24:22.269Z,1018.084
2023-04-16T01:24:52.277Z,1018.087
2023-04-16T01:25:22.285Z,1018.094
2023-04-16T01:25:52.268Z,1018.101
2023-04-16T01:26:22.270Z,1018.098
2023-04-16T01:26:52.269Z,1018.1
2023-04-16T01:27:22.268Z,1018.108
2023-04-16T01:27:52.264Z,1018.101
2023-04-16T01:28:22.277Z,1018.1
2023-04-16T01:28:52.271Z,1018.098
2023-04-16T01:29:22.282Z,1018.108
2023-04-16T01:29:52.271Z,1018.116
2023-04-16T01:30:22.266Z,1018.116
2023-04-16T01:30:52.268Z,1018.123
2023-04-16T01:31:22.284Z,1018.121
2023-04-16T01:31:52.298Z,1018.12
2023-04-16T01:32:22.287Z,1018.125
2023-04-16T01:32:52.315Z,1018.137
2023-04-16T01:33:22.273Z,1018.144
2023-04-16T01:33:52.277Z,1018.155
2023-04-16T01:34:22.269Z,1018.154
2023-04-16T01:34:52.267Z,1018.158
2023-04-16T01:35:22.270Z,1018.156
2023-04-16T01:35:52.262Z,1018.158
2023-04-16T01:36:22.268Z,1018.15
2023-04-16T01:36:52.278Z,1018.144
2023-04-16T01:37:22.270Z,1018.137
2023-04-16T01:37:52.339Z,1018.143
2023-04-16T01:38:22.267Z,1018.148
2023-04-16T01:38:52.273Z,1018.149
2023-04-16T01:39:22.274Z,1018.161
2023-04-16T01:39:52.264Z,1018.142
2023-04-16T01:40:22.275Z,1018.14
2023-04-16T01:40:52.270Z,1018.137
2023-04-16T01:41:22.275Z,1018.152
2023-04-16T01:41:52.274Z,1018.15
2023-04-16T01:42:22.272Z,1018.148
2023-04-16T01:42:52.271Z,1018.148
2023-04-16T01:43:22.281Z,1018.143
2023-04-16T01:43:52.264Z,1018.149
2023-04-16T01:44:22.269Z,1018.142
2023-04-16T01:44:52.267Z,1018.148
2023-04-16T01:45:22.286Z,1018.152
2023-04-16T01:45:52.266Z,1018.152
2023-04-16T01:46:22.291Z,1018.159
2023-04-16T01:46:52.337Z,1018.17
2023-04-16T01:47:22.295Z,1018.165
2023-04-16T01:47:52.311Z,1018.16
2023-04-16T01:48:22.281Z,1018.168
2023-04-16T01:48:52.271Z,1018.159
2023-04-16T01:49:22.271Z,1018.171
2023-04-16T01:49:52.269Z,1018.168
2023-04-16T01:50:22.266Z,1018.163
2023-04-16T01:50:52.267Z,1018.163
2023-04-16T01:51:22.269Z,1018.167
2023-04-16T01:51:52.271Z,1018.165
2023-04-16T01:52:22.264Z,1018.168
2023-04-16T01:52:52.271Z,1018.169
2023-04-16T01:53:22.269Z,1018.178
2023-04-16T01:53:52.281Z,1018.185
2023-04-16T01:54:22.270Z,1018.193
2023-04-16T01:54:52.265Z,1018.204
2023-04-16T01:55:22.276Z,1018.206
2023-04-16T01:55:52.265Z,1018.213
2023-04-16T01:56:22.273Z,1018.217
2023-04-16T01:56:52.278Z,1018.223
2023-04-16T01:57:22.274Z,1018.223
2023-04-16T01:57:52.276Z,1018.233
2023-04-16T01:58:22.269Z,1018.219
2023-04-16T01:58:52.279Z,1018.217
2023-04-16T01:59:22.270Z,1018.219
2023-04-16T01:59:52.272Z,1018.218
2023-04-16T02:00:22.267Z,1018.213
2023-04-16T02:00:52.291Z,1018.209
2023-04-16T02:01:22.345Z,1018.21
2023-04-16T02:01:52.344Z,1018.22
2023-04-16T02:02:22.487Z,1018.224
2023-04-16T02:02:52.376Z,1018.245
2023-04-16T02:03:22.549Z,1018.253
2023-04-16T02:03:52.357Z,1018.252
2023-04-16T02:04:22.269Z,1018.266
2023-04-16T02:04:52.269Z,1018.265
2023-04-16T02:05:22.276Z,1018.27
2023-04-16T02:05:52.277Z,1018.282
2023-04-16T02:06:22.277Z,1018.29
2023-04-16T02:06:52.279Z,1018.297
2023-04-16T02:07:22.270Z,1018.312
2023-04-16T02:07:52.267Z,1018.319
2023-04-16T02:08:22.271Z,1018.323
2023-04-16T02:08:52.271Z,1018.334
2023-04-16T02:09:22.272Z,1018.34
2023-04-16T02:09:52.273Z,1018.351
2023-04-16T02:10:22.267Z,1018.347
2023-04-16T02:10:52.271Z,1018.356
2023-04-16T02:11:22.299Z,1018.356
2023-04-16T02:11:52.279Z,1018.356
2023-04-16T02:12:22.277Z,1018.364
2023-04-16T02:12:52.280Z,1018.363
2023-04-16T02:13:22.265Z,1018.37
2023-04-16T02:13:52.266Z,1018.377
2023-04-16T02:14:22.276Z,1018.388
2023-04-16T02:14:52.268Z,1018.391
2023-04-16T02:15:22.263Z,1018.397
2023-04-16T02:15:52.272Z,1018.398
2023-04-16T02:16:22.340Z,1018.403
2023-04-16T02:16:52.380Z,1018.401
2023-04-16T02:17:22.302Z,1018.411
2023-04-16T02:17:52.326Z,1018.411
2023-04-16T02:18:22.268Z,1018.414
2023-04-16T02:18:52.296Z,1018.41
2023-04-16T02:19:22.265Z,1018.411
2023-04-16T02:19:52.265Z,1018.417
2023-04-16T02:20:22.271Z,1018.42
2023-04-16T02:20:52.273Z,1018.426
2023-04-16T02:21:22.267Z,1018.438
2023-04-16T02:21:52.269Z,1018.439
2023-04-16T02:22:22.263Z,1018.436
2023-04-16T02:22:52.270Z,1018.44
2023-04-16T02:23:22.272Z,1018.438
2023-04-16T02:23:52.264Z,1018.44
2023-04-16T02:24:22.279Z,1018.437
2023-04-16T02:24:52.266Z,1018.425
2023-04-16T02:25:22.280Z,1018.422
2023-04-16T02:25:52.268Z,1018.426
2023-04-16T02:26:22.275Z,1018.429
2023-04-16T02:26:52.289Z,1018.442
2023-04-16T02:27:22.281Z,1018.442
2023-04-16T02:27:52.266Z,1018.446
2023-04-16T02:28:22.268Z,1018.438
2023-04-16T02:28:52.282Z,1018.441
2023-04-16T02:29:22.270Z,1018.444
2023-04-16T02:29:52.288Z,1018.44
2023-04-16T02:30:22.274Z,1018.436
2023-04-16T02:30:52.268Z,1018.423
2023-04-16T02:31:22.296Z,1018.422
2023-04-16T02:31:52.279Z,1018.426
2023-04-16T02:32:22.335Z,1018.43
2023-04-16T02:32:52.381Z,1018.432
2023-04-16T02:33:22.278Z,1018.433
2023-04-16T02:33:52.265Z,1018.429
2023-04-16T02:34:22.284Z,1018.433
2023-04-16T02:34:52.263Z,1018.436
2023-04-16T02:35:22.269Z,1018.439
2023-04-16T02:35:52.268Z,1018.446
2023-04-16T02:36:22.268Z,1018.447
2023-04-16T02:36:52.263Z,1018.452
2023-04-16T02:37:22.273Z,1018.458
2023-04-16T02:37:52.273Z,1018.462
2023-04-16T02:38:22.270Z,1018.471
2023-04-16T02:38:52.268Z,1018.469
2023-04-16T02:39:22.280Z,1018.48
2023-04-16T02:39:52.266Z,1018.485
2023-04-16T02:40:22.269Z,1018.483
2023-04-16T02:40:52.270Z,1018.485
2023-04-16T02:41:22.273Z,1018.487
2023-04-16T02:41:52.293Z,1018.47
2023-04-16T02:42:22.293Z,1018.469
2023-04-16T02:42:52.269Z,1018.468
2023-04-16T02:43:22.276Z,1018.465
2023-04-16T02:43:52.269Z,1018.47
2023-04-16T02:44:22.273Z,1018.461
2023-04-16T02:44:52.263Z,1018.453
2023-04-16T02:45:22.276Z,1018.443
2023-04-16T02:45:52.296Z,1018.438
2023-04-16T02:46:22.376Z,1018.439
2023-04-16T02:46:52.269Z,1018.43
2023-04-16T02:47:22.291Z,1018.437
2023-04-16T02:47:52.298Z,1018.432
2023-04-16T02:48:22.269Z,1018.433
2023-04-16T02:48:52.295Z,1018.434
2023-04-16T02:49:22.275Z,1018.434
2023-04-16T02:49:52.267Z,1018.436
2023-04-16T02:50:22.270Z,1018.434
2023-04-16T02:50:52.270Z,1018.439
2023-04-16T02:51:22.276Z,1018.442
2023-04-16T02:51:52.309Z,1018.44
2023-04-16T02:52:22.269Z,1018.443
2023-04-16T02:52:52.272Z,1018.443
2023-04-16T02:53:22.275Z,1018.436
2023-04-16T02:53:52.268Z,1018.44
2023-04-16T02:54:22.270Z,1018.44
2023-04-16T02:54:52.271Z,1018.444
2023-04-16T02:55:22.281Z,1018.449
2023-04-16T02:55:52.274Z,1018.453
2023-04-16T02:56:22.276Z,1018.446
2023-04-16T02:56:52.273Z,1018.447
2023-04-16T02:57:22.283Z,1018.44
2023-04-16T02:57:52.271Z,1018.438
2023-04-16T02:58:22.272Z,1018.432
2023-04-16T02:58:52.276Z,1018.434
2023-04-16T02:59:22.284Z,1018.436
2023-04-16T02:59:52.268Z,1018.443
2023-04-16T03:00:22.274Z,1018.435
2023-04-16T03:00:52.273Z,1018.427
2023-04-16T03:01:22.283Z,1018.425
2023-04-16T03:01:52.375Z,1018.417
2023-04-16T03:02:22.313Z,1018.41
2023-04-16T03:02:52.356Z,1018.403
2023-04-16T03:03:22.299Z,1018.395
2023-04-16T03:03:52.310Z,1018.393
2023-04-16T03:04:22.332Z,1018.393
2023-04-16T03:04:52.271Z,1018.383
2023-04-16T03:05:22.270Z,1018.376
2023-04-16T03:05:52.271Z,1018.381
2023-04-16T03:06:22.274Z,1018.382
2023-04-16T03:06:52.273Z,1018.378
2023-04-16T03:07:22.267Z,1018.378
2023-04-16T03:07:52.265Z,1018.368
2023-04-16T03:08:22.273Z,1018.36
2023-04-16T03:08:52.265Z,1018.357
2023-04-16T03:09:22.271Z,1018.357
2023-04-16T03:09:52.281Z,1018.353
2023-04-16T03:10:22.282Z,1018.357
2023-04-16T03:10:52.281Z,1018.35
2023-04-16T03:11:22.275Z,1018.347
2023-04-16T03:11:52.272Z,1018.331
2023-04-16T03:12:22.281Z,1018.335
2023-04-16T03:12:52.278Z,1018.343
2023-04-16T03:13:22.277Z,1018.337
2023-04-16T03:13:52.273Z,1018.335
2023-04-16T03:14:22.273Z,1018.323
2023-04-16T03:14:52.273Z,1018.335
2023-04-16T03:15:22.272Z,1018.338
2023-04-16T03:15:52.322Z,1018.347
2023-04-16T03:16:22.429Z,1018.346
2023-04-16T03:16:52.270Z,1018.346
2023-04-16T03:17:22.314Z,1018.34
2023-04-16T03:17:52.319Z,1018.342
2023-04-16T03:18:22.274Z,1018.35
2023-04-16T03:18:52.276Z,1018.361
2023-04-16T03:19:22.269Z,1018.362
2023-04-16T03:19:52.272Z,1018.351
2023-04-16T03:20:22.271Z,1018.352
2023-04-16T03:20:52.268Z,1018.357
2023-04-16T03:21:22.268Z,1018.357
2023-04-16T03:21:52.269Z,1018.351
2023-04-16T03:22:22.285Z,1018.361
2023-04-16T03:22:52.278Z,1018.365
2023-04-16T03:23:22.270Z,1018.373
2023-04-16T03:23:52.273Z,1018.386
2023-04-16T03:24:22.280Z,1018.382
2023-04-16T03:24:52.299Z,1018.401
2023-04-16T03:25:22.305Z,1018.405
2023-04-16T03:25:52.270Z,1018.409
2023-04-16T03:26:22.274Z,1018.413
2023-04-16T03:26:52.277Z,1018.415
2023-04-16T03:27:22.275Z,1018.419
2023-04-16T03:27:52.278Z,1018.422
2023-04-16T03:28:22.270Z,1018.429
2023-04-16T03:28:52.274Z,1018.436
2023-04-16T03:29:22.275Z,1018.449
2023-04-16T03:29:52.271Z,1018.446
2023-04-16T03:30:22.277Z,1018.44
2023-04-16T03:30:52.312Z,1018.444
2023-04-16T03:31:22.300Z,1018.441
2023-04-16T03:31:52.272Z,1018.438
2023-04-16T03:32:22.315Z,1018.444
2023-04-16T03:32:52.332Z,1018.438
2023-04-16T03:33:22.276Z,1018.441
2023-04-16T03:33:52.276Z,1018.449
2023-04-16T03:34:22.284Z,1018.453
2023-04-16T03:34:52.281Z,1018.455
2023-04-16T03:35:22.274Z,1018.46
2023-04-16T03:35:52.273Z,1018.461
2023-04-16T03:36:22.296Z,1018.464
2023-04-16T03:36:52.277Z,1018.46
2023-04-16T03:37:22.276Z,1018.453
2023-04-16T03:37:52.279Z,1018.447
2023-04-16T03:38:22.280Z,1018.451
2023-04-16T03:38:52.282Z,1018.457
2023-04-16T03:39:22.279Z,1018.466
2023-04-16T03:39:52.277Z,1018.465
2023-04-16T03:40:22.288Z,1018.465
2023-04-16T03:40:52.277Z,1018.478
2023-04-16T03:41:22.273Z,1018.477
2023-04-16T03:41:52.294Z,1018.477
2023-04-16T03:42:22.278Z,1018.481
2023-04-16T03:42:52.284Z,1018.485
2023-04-16T03:43:22.294Z,1018.486
2023-04-16T03:43:52.278Z,1018.487
2023-04-16T03:44:22.278Z,1018.489
2023-04-16T03:44:52.278Z,1018.486
2023-04-16T03:45:22.279Z,1018.486
2023-04-16T03:45:52.290Z,1018.482
2023-04-16T03:46:22.301Z,1018.485
2023-04-16T03:46:52.373Z,1018.484
2023-04-16T03:47:22.304Z,1018.472
2023-04-16T03:47:52.342Z,1018.476
2023-04-16T03:48:22.292Z,1018.475
2023-04-16T03:48:52.277Z,1018.472
2023-04-16T03:49:22.281Z,1018.462
2023-04-16T03:49:52.291Z,1018.469
2023-04-16T03:50:22.288Z,1018.471
2023-04-16T03:50:52.278Z,1018.473
2023-04-16T03:51:22.286Z,1018.463
2023-04-16T03:51:52.278Z,1018.456
2023-04-16T03:52:22.283Z,1018.463
2023-04-16T03:52:52.288Z,1018.481
2023-04-16T03:53:22.286Z,1018.477
2023-04-16T03:53:52.308Z,1018.468
2023-04-16T03:54:23.073Z,1018.465
2023-04-16T03:54:52.282Z,1018.473
2023-04-16T03:55:22.288Z,1018.472
2023-04-16T03:55:52.283Z,1018.473
2023-04-16T03:56:22.292Z,1018.469
2023-04-16T03:56:52.277Z,1018.472
2023-04-16T03:57:22.292Z,1018.475
2023-04-16T03:57:52.282Z,1018.482
2023-04-16T03:58:22.292Z,1018.469
2023-04-16T03:58:52.311Z,1018.461
2023-04-16T03:59:22.280Z,1018.465
2023-04-16T03:59:52.280Z,1018.467
2023-04-16T04:00:22.289Z,1018.467
2023-04-16T04:00:52.280Z,1018.464
2023-04-16T04:01:22.287Z,1018.461
2023-04-16T04:01:52.337Z,1018.466
2023-04-16T04:02:22.500Z,1018.458
2023-04-16T04:02:52.499Z,1018.466
2023-04-16T04:03:22.461Z,1018.465
2023-04-16T04:03:52.582Z,1018.459
2023-04-16T04:04:22.397Z,1018.469
2023-04-16T04:04:52.325Z,1018.467
2023-04-16T04:05:22.288Z,1018.468
2023-04-16T04:05:52.279Z,1018.462
2023-04-16T04:06:22.295Z,1018.469
2023-04-16T04:06:52.281Z,1018.466
2023-04-16T04:07:22.285Z,1018.465
2023-04-16T04:07:52.284Z,1018.452
2023-04-16T04:08:22.287Z,1018.428
2023-04-16T04:08:52.290Z,1018.395
2023-04-16T04:09:22.286Z,1018.35
2023-04-16T04:09:52.280Z,1018.308
2023-04-16T04:10:22.283Z,1018.262
2023-04-16T04:10:52.287Z,1018.221
2023-04-16T04:11:22.287Z,1018.193
2023-04-16T04:11:52.285Z,1018.164
2023-04-16T04:12:22.290Z,1018.143
2023-04-16T04:12:52.288Z,1018.125
2023-04-16T04:13:22.282Z,1018.118
2023-04-16T04:13:52.285Z,1018.114
2023-04-16T04:14:22.291Z,1018.112
2023-04-16T04:14:52.311Z,1018.111
2023-04-16T04:15:22.320Z,1018.089
2023-04-16T04:15:52.333Z,1018.071
2023-04-16T04:16:22.341Z,1018.066
2023-04-16T04:16:52.288Z,1018.063
2023-04-16T04:17:22.401Z,1018.054
2023-04-16T04:17:52.336Z,1018.048
2023-04-16T04:18:22.306Z,1018.045
2023-04-16T04:18:52.286Z,1018.034
2023-04-16T04:19:22.288Z,1018.043
2023-04-16T04:20:01.190Z,1018.044
2023-04-16T04:20:23.361Z,1018.047
2023-04-16T04:20:52.305Z,1018.061
2023-04-16T04:21:22.299Z,1018.06
2023-04-16T04:21:52.290Z,1018.056
2023-04-16T04:22:22.279Z,1018.043
2023-04-16T04:22:52.288Z,1018.037
2023-04-16T04:23:22.285Z,1018.046
2023-04-16T04:23:53.232Z,1018.055
2023-04-16T04:24:22.297Z,1018.056
2023-04-16T04:24:52.283Z,1018.056
2023-04-16T04:25:22.291Z,1018.056
2023-04-16T04:25:52.319Z,1018.056
2023-04-16T04:26:22.301Z,1018.067
2023-04-16T04:26:52.290Z,1018.07
2023-04-16T04:27:22.293Z,1018.08
2023-04-16T04:27:52.286Z,1018.076
2023-04-16T04:28:22.288Z,1018.079
2023-04-16T04:28:52.282Z,1018.078
2023-04-16T04:29:22.289Z,1018.078
2023-04-16T04:29:52.279Z,1018.073
2023-04-16T04:30:22.284Z,1018.059
2023-04-16T04:30:52.288Z,1018.044
2023-04-16T04:31:22.347Z,1018.036
2023-04-16T04:31:52.382Z,1018.035
2023-04-16T04:32:22.294Z,1018.027
2023-04-16T04:32:52.344Z,1018.025
2023-04-16T04:33:22.286Z,1018.016
2023-04-16T04:33:52.291Z,1018.025
2023-04-16T04:34:22.282Z,1018.046
2023-04-16T04:34:52.287Z,1018.062
2023-04-16T04:35:22.289Z,1018.077
2023-04-16T04:35:52.293Z,1018.124
2023-04-16T04:36:22.280Z,1018.171
2023-04-16T04:36:52.291Z,1018.211
2023-04-16T04:37:22.285Z,1018.261
2023-04-16T04:37:52.291Z,1018.302
2023-04-16T04:38:22.334Z,1018.352
2023-04-16T04:38:52.295Z,1018.373
2023-04-16T04:39:22.308Z,1018.393
2023-04-16T04:39:52.283Z,1018.406
2023-04-16T04:40:22.353Z,1018.415
2023-04-16T04:40:52.299Z,1018.415
2023-04-16T04:41:22.294Z,1018.426
2023-04-16T04:41:52.289Z,1018.431
2023-04-16T04:42:22.296Z,1018.438
2023-04-16T04:42:52.285Z,1018.45
2023-04-16T04:43:22.288Z,1018.449
2023-04-16T04:43:52.284Z,1018.453
2023-04-16T04:44:22.291Z,1018.453
2023-04-16T04:44:52.289Z,1018.442
2023-04-16T04:45:22.305Z,1018.425
2023-04-16T04:45:52.326Z,1018.394
2023-04-16T04:46:22.396Z,1018.354
2023-04-16T04:46:52.295Z,1018.313
2023-04-16T04:47:22.316Z,1018.275
2023-04-16T04:47:52.323Z,1018.232
2023-04-16T04:48:22.290Z,1018.194
2023-04-16T04:48:52.290Z,1018.157
2023-04-16T04:49:22.295Z,1018.137
2023-04-16T04:49:52.292Z,1018.118
2023-04-16T04:50:22.300Z,1018.11
2023-04-16T04:50:52.295Z,1018.085
2023-04-16T04:51:22.309Z,1018.091
2023-04-16T04:51:52.306Z,1018.093
2023-04-16T04:52:22.292Z,1018.085
2023-04-16T04:52:52.292Z,1018.075
2023-04-16T04:53:22.297Z,1018.068
2023-04-16T04:53:52.300Z,1018.05
2023-04-16T04:54:22.306Z,1018.04
2023-04-16T04:54:52.287Z,1018.039
2023-04-16T04:55:22.300Z,1018.043
2023-04-16T04:55:55.693Z,1018.05
2023-04-16T04:56:23.308Z,1018.073
2023-04-16T04:56:52.290Z,1018.076
2023-04-16T04:57:22.295Z,1018.097
2023-04-16T04:57:52.289Z,1018.11
2023-04-16T04:58:22.293Z,1018.123
2023-04-16T04:58:52.293Z,1018.13
2023-04-16T04:59:22.296Z,1018.128
2023-04-16T04:59:52.292Z,1018.143
2023-04-16T05:00:22.294Z,1018.147
2023-04-16T05:00:52.318Z,1018.148
2023-04-16T05:01:22.321Z,1018.146
2023-04-16T05:01:52.320Z,1018.157
2023-04-16T05:02:22.406Z,1018.169
2023-04-16T05:02:52.428Z,1018.17
2023-04-16T05:03:22.485Z,1018.191
2023-04-16T05:03:52.308Z,1018.187
2023-04-16T05:04:22.296Z,1018.199
2023-04-16T05:04:52.317Z,1018.2
2023-04-16T05:05:22.352Z,1018.202
2023-04-16T05:05:52.298Z,1018.201
2023-04-16T05:06:22.299Z,1018.198
2023-04-16T05:06:52.296Z,1018.18
2023-04-16T05:07:22.297Z,1018.162
2023-04-16T05:07:52.314Z,1018.166
2023-04-16T05:08:22.304Z,1018.186
2023-04-16T05:08:52.298Z,1018.196
2023-04-16T05:09:22.325Z,1018.194
2023-04-16T05:09:52.304Z,1018.193
2023-04-16T05:10:22.316Z,1018.195
2023-04-16T05:10:52.301Z,1018.204
2023-04-16T05:11:22.299Z,1018.208
2023-04-16T05:11:52.303Z,1018.195
2023-04-16T05:12:22.305Z,1018.184
2023-04-16T05:12:52.302Z,1018.161
2023-04-16T05:13:22.304Z,1018.146
2023-04-16T05:13:52.320Z,1018.141
2023-04-16T05:14:22.303Z,1018.122
2023-04-16T05:14:52.302Z,1018.106
2023-04-16T05:15:22.295Z,1018.09
2023-04-16T05:15:52.317Z,1018.083
2023-04-16T05:16:22.347Z,1018.071
2023-04-16T05:16:52.330Z,1018.058
2023-04-16T05:17:22.303Z,1018.049
2023-04-16T05:17:52.356Z,1018.067
2023-04-16T05:18:22.321Z,1018.077
2023-04-16T05:18:52.308Z,1018.06
2023-04-16T05:19:22.306Z,1018.056
2023-04-16T05:19:52.323Z,1018.047
2023-04-16T05:20:22.297Z,1018.045
2023-04-16T05:20:52.301Z,1018.049
2023-04-16T05:21:22.309Z,1018.057
2023-04-16T05:21:52.300Z,1018.05
2023-04-16T05:22:22.302Z,1018.044
2023-04-16T05:22:52.304Z,1018.036
2023-04-16T05:23:22.390Z,1018.043
2023-04-16T05:23:52.312Z,1018.051
2023-04-16T05:24:22.300Z,1018.052
2023-04-16T05:24:52.314Z,1018.051
2023-04-16T05:25:22.302Z,1018.053
2023-04-16T05:25:52.299Z,1018.052
2023-04-16T05:26:22.301Z,1018.057
2023-04-16T05:26:52.307Z,1018.06
2023-04-16T05:27:22.307Z,1018.062
2023-04-16T05:27:52.304Z,1018.071
2023-04-16T05:28:22.312Z,1018.082
2023-04-16T05:28:52.306Z,1018.083
2023-04-16T05:29:22.308Z,1018.098
2023-04-16T05:29:52.313Z,1018.114
2023-04-16T05:30:22.304Z,1018.121
2023-04-16T05:30:52.356Z,1018.12
2023-04-16T05:31:22.371Z,1018.114
2023-04-16T05:31:52.309Z,1018.103
2023-04-16T05:32:22.342Z,1018.087
2023-04-16T05:32:52.395Z,1018.075
2023-04-16T05:33:22.308Z,1018.062
2023-04-16T05:33:52.310Z,1018.05
2023-04-16T05:34:22.308Z,1018.034
2023-04-16T05:34:52.318Z,1018.038
2023-04-16T05:35:22.306Z,1018.022
2023-04-16T05:35:52.304Z,1018.011
2023-04-16T05:36:22.312Z,1018.008
2023-04-16T05:36:52.307Z,1018.01
2023-04-16T05:37:22.310Z,1018.002
2023-04-16T05:37:52.318Z,1017.992
2023-04-16T05:38:22.309Z,1017.993
2023-04-16T05:38:52.310Z,1017.987
2023-04-16T05:39:22.301Z,1017.994
2023-04-16T05:39:52.311Z,1018.021
2023-04-16T05:40:22.300Z,1018.011
2023-04-16T05:40:52.308Z,1017.996
2023-04-16T05:41:22.302Z,1017.991
2023-04-16T05:41:52.306Z,1017.98
2023-04-16T05:42:22.302Z,1017.969
2023-04-16T05:42:52.308Z,1017.966
2023-04-16T05:43:22.299Z,1017.953
2023-04-16T05:43:52.310Z,1017.952
2023-04-16T05:44:22.309Z,1017.964
2023-04-16T05:44:52.331Z,1017.966
2023-04-16T05:45:22.302Z,1017.954
2023-04-16T05:45:52.320Z,1017.937
2023-04-16T05:46:22.324Z,1017.927
2023-04-16T05:46:52.308Z,1017.921
2023-04-16T05:47:22.335Z,1017.915
2023-04-16T05:47:52.353Z,1017.918
2023-04-16T05:48:22.302Z,1017.934
2023-04-16T05:48:52.304Z,1017.946
2023-04-16T05:49:22.318Z,1017.954
2023-04-16T05:49:52.310Z,1017.951
2023-04-16T05:50:22.318Z,1017.954
2023-04-16T05:50:52.310Z,1017.945
2023-04-16T05:51:22.310Z,1017.95
2023-04-16T05:51:52.305Z,1017.947
2023-04-16T05:52:22.319Z,1017.943
2023-04-16T05:52:52.308Z,1017.938
2023-04-16T05:53:22.312Z,1017.944